Time;durP1;ratioP1;P1;durP2;ratioP2;P2;SDS_P1;SDS_P2;PMS_P1;PMS_P2;Temp;Humidity;BMP_temperature;BMP_pressure;BME280_temperature;BME280_humidity;BME280_pressure;Samples;Min_cycle;Max_cycle;Signal;HPM_P1;HPM_P2
2023/06/01 00:01:54;;;;;;;14.40;8.23;;;15.10;99.90;;;;;;5013999;28;20014;-80
2023/06/01 00:04:20;;;;;;;16.58;7.93;;;15.00;99.90;;;;;;5018467;28;20052;-80
2023/06/01 00:06:45;;;;;;;19.92;8.60;;;14.80;99.90;;;;;;5011652;28;20581;-79
2023/06/01 00:09:11;;;;;;;26.15;9.45;;;14.80;99.90;;;;;;5013461;28;20081;-80
2023/06/01 00:11:37;;;;;;;16.30;8.10;;;14.70;99.90;;;;;;5018542;28;20122;-80
2023/06/01 00:14:03;;;;;;;18.83;8.27;;;14.70;99.90;;;;;;5010277;28;20029;-80
2023/06/01 00:16:30;;;;;;;18.30;8.63;;;14.70;99.90;;;;;;5011874;28;20159;-81
2023/06/01 00:18:56;;;;;;;14.20;8.05;;;14.60;99.90;;;;;;5021266;28;20025;-80
2023/06/01 00:21:22;;;;;;;17.95;8.70;;;14.50;99.90;;;;;;5017737;28;20087;-81
2023/06/01 00:23:49;;;;;;;19.38;8.23;;;14.50;99.90;;;;;;5012210;28;20413;-81
2023/06/01 00:26:15;;;;;;;17.55;8.80;;;14.40;99.90;;;;;;5011099;28;20025;-80
2023/06/01 00:28:41;;;;;;;12.10;8.68;;;14.40;99.90;;;;;;5012156;28;20039;-81
2023/06/01 00:31:06;;;;;;;18.63;8.63;;;14.40;99.90;;;;;;5014360;28;20048;-81
2023/06/01 00:33:32;;;;;;;21.58;8.95;;;14.40;99.90;;;;;;5021104;28;20493;-81
2023/06/01 00:35:58;;;;;;;22.92;9.63;;;14.40;99.90;;;;;;5015667;28;20037;-80
2023/06/01 00:38:23;;;;;;;23.02;9.25;;;14.30;99.90;;;;;;5015510;28;20026;-79
2023/06/01 00:40:52;;;;;;;18.55;8.95;;;14.20;99.90;;;;;;5018393;28;20033;-80
2023/06/01 00:43:18;;;;;;;18.13;9.60;;;14.10;99.90;;;;;;5013128;28;20021;-81
2023/06/01 00:45:44;;;;;;;27.50;9.45;;;14.10;99.90;;;;;;5012924;28;20028;-82
2023/06/01 00:48:14;;;;;;;20.48;9.27;;;14.10;99.90;;;;;;5014530;28;20018;-81
2023/06/01 00:50:40;;;;;;;21.52;9.50;;;14.10;99.90;;;;;;5008650;28;20097;-81
2023/06/01 00:53:10;;;;;;;22.42;10.20;;;13.90;99.90;;;;;;5012867;28;20061;-80
2023/06/01 00:55:37;;;;;;;19.13;10.07;;;13.90;99.90;;;;;;5017758;28;20022;-80
2023/06/01 00:58:02;;;;;;;19.48;9.90;;;13.90;99.90;;;;;;5014163;28;20294;-80
2023/06/01 01:00:29;;;;;;;16.42;8.95;;;13.90;99.90;;;;;;5020121;28;20022;-80
2023/06/01 01:03:00;;;;;;;22.52;10.40;;;13.80;99.90;;;;;;5012542;28;20021;-80
2023/06/01 01:05:26;;;;;;;21.08;9.95;;;13.80;99.90;;;;;;5019163;28;20116;-80
2023/06/01 01:07:55;;;;;;;26.42;9.90;;;13.80;99.90;;;;;;5019589;28;20025;-80
2023/06/01 01:10:40;;;;;;;26.90;10.43;;;13.70;99.90;;;;;;5013789;28;20048;-81
2023/06/01 01:13:21;;;;;;;19.45;10.25;;;13.70;99.90;;;;;;5016618;28;20153;-82
2023/06/01 01:15:58;;;;;;;18.60;8.77;;;13.60;99.90;;;;;;5019585;28;20393;-82
2023/06/01 01:18:33;;;;;;;23.40;10.45;;;13.50;99.90;;;;;;5025013;28;20116;-81
2023/06/01 01:21:03;;;;;;;22.67;11.00;;;13.50;99.90;;;;;;5010677;28;20574;-82
2023/06/01 01:23:38;;;;;;;19.92;10.32;;;13.50;99.90;;;;;;5013342;28;20032;-81
2023/06/01 01:26:12;;;;;;;19.90;9.43;;;13.50;99.90;;;;;;5012465;28;20487;-80
2023/06/01 01:28:49;;;;;;;21.55;9.60;;;13.50;99.90;;;;;;5012730;28;20021;-81
2023/06/01 01:31:23;;;;;;;27.33;10.65;;;13.50;99.90;;;;;;5015537;28;20088;-81
2023/06/01 01:33:52;;;;;;;23.40;10.50;;;13.50;99.90;;;;;;5020542;28;20029;-82
2023/06/01 01:36:19;;;;;;;19.30;9.18;;;13.40;99.90;;;;;;5009476;28;20030;-83
2023/06/01 01:38:44;;;;;;;18.60;9.45;;;13.30;99.90;;;;;;5014471;28;20066;-83
2023/06/01 01:41:10;;;;;;;19.45;9.85;;;13.40;99.90;;;;;;5012296;28;20053;-84
2023/06/01 01:43:37;;;;;;;19.30;9.23;;;13.30;99.90;;;;;;5015139;28;20469;-83
2023/06/01 01:46:22;;;;;;;16.90;9.38;;;13.40;99.90;;;;;;5013045;28;20108;-84
2023/06/01 01:49:05;;;;;;;15.50;8.40;;;13.30;99.90;;;;;;5013099;28;20029;-83
2023/06/01 01:52:15;;;;;;;16.38;9.35;;;13.30;99.90;;;;;;5020763;28;20036;-84
2023/06/01 01:54:46;;;;;;;20.45;8.27;;;13.30;99.90;;;;;;5015821;28;20112;-80
2023/06/01 01:57:16;;;;;;;18.50;7.80;;;13.20;99.90;;;;;;5013114;28;20095;-81
2023/06/01 01:59:42;;;;;;;15.65;8.38;;;13.20;99.90;;;;;;5019861;28;20425;-81
2023/06/01 02:02:08;;;;;;;15.80;7.97;;;13.20;99.90;;;;;;5012672;28;20029;-81
2023/06/01 02:04:41;;;;;;;15.52;7.95;;;13.20;99.90;;;;;;5008610;28;20029;-80
2023/06/01 02:07:07;;;;;;;14.68;8.40;;;13.20;99.90;;;;;;5018154;28;20074;-82
2023/06/01 02:09:33;;;;;;;13.70;7.57;;;13.20;99.90;;;;;;5011019;28;20124;-82
2023/06/01 02:11:59;;;;;;;16.95;7.55;;;13.10;99.90;;;;;;5011715;28;20041;-82
2023/06/01 02:14:25;;;;;;;16.60;7.72;;;13.00;99.90;;;;;;5012303;28;20040;-81
2023/06/01 02:16:50;;;;;;;14.98;8.07;;;13.00;99.90;;;;;;5009911;28;20034;-82
2023/06/01 02:19:17;;;;;;;13.68;7.10;;;13.00;99.90;;;;;;5009142;28;20024;-81
2023/06/01 02:21:42;;;;;;;20.80;7.10;;;12.90;99.90;;;;;;5009142;28;20424;-81
2023/06/01 02:24:08;;;;;;;15.68;6.82;;;12.90;99.90;;;;;;5014172;28;20018;-82
2023/06/01 02:26:35;;;;;;;14.88;7.07;;;12.90;99.90;;;;;;5007711;28;20966;-82
2023/06/01 02:29:05;;;;;;;16.23;7.18;;;12.90;99.90;;;;;;5010594;28;20513;-82
2023/06/01 02:31:32;;;;;;;13.73;5.85;;;12.80;99.90;;;;;;5014796;28;20034;-82
2023/06/01 02:34:00;;;;;;;11.95;6.40;;;12.80;99.90;;;;;;5011023;28;20022;-83
2023/06/01 02:36:28;;;;;;;12.18;6.47;;;12.90;99.90;;;;;;5013307;28;20037;-81
2023/06/01 02:38:55;;;;;;;18.67;6.43;;;12.90;99.90;;;;;;5012158;28;20513;-82
2023/06/01 02:41:21;;;;;;;17.73;6.70;;;13.00;99.90;;;;;;5011977;28;20022;-82
2023/06/01 02:43:47;;;;;;;16.02;6.30;;;12.80;99.90;;;;;;5013499;28;20016;-81
2023/06/01 02:46:13;;;;;;;11.07;5.72;;;12.90;99.90;;;;;;5011455;28;20472;-82
2023/06/01 02:48:39;;;;;;;12.10;6.03;;;13.00;99.90;;;;;;5009506;28;20474;-81
2023/06/01 02:51:07;;;;;;;16.23;6.57;;;13.00;99.90;;;;;;5014189;28;20049;-81
2023/06/01 02:53:33;;;;;;;11.80;5.60;;;12.90;99.90;;;;;;5024757;28;20440;-81
2023/06/01 02:56:01;;;;;;;16.15;6.70;;;12.90;99.90;;;;;;5012124;28;20062;-80
2023/06/01 02:58:29;;;;;;;15.40;6.18;;;13.00;99.90;;;;;;5015691;28;20048;-82
2023/06/01 03:00:55;;;;;;;13.20;6.97;;;13.10;99.90;;;;;;5017692;28;20022;-82
2023/06/01 03:03:21;;;;;;;13.23;6.40;;;13.00;99.90;;;;;;5009969;28;20640;-81
2023/06/01 03:05:49;;;;;;;19.55;7.18;;;13.00;99.90;;;;;;5011026;28;20309;-82
2023/06/01 03:08:16;;;;;;;12.25;5.82;;;13.00;99.90;;;;;;5012413;28;20026;-82
2023/06/01 03:10:44;;;;;;;10.05;5.82;;;13.00;99.90;;;;;;5013277;28;20032;-82
2023/06/01 03:13:10;;;;;;;11.82;6.28;;;13.00;99.90;;;;;;5006883;28;20033;-82
2023/06/01 03:15:37;;;;;;;15.45;6.13;;;13.10;99.90;;;;;;5017395;28;20030;-82
2023/06/01 03:18:03;;;;;;;15.85;5.97;;;13.10;99.90;;;;;;5027837;28;20033;-83
2023/06/01 03:20:31;;;;;;;9.18;5.68;;;13.00;99.90;;;;;;5011003;28;20037;-82
2023/06/01 03:22:57;;;;;;;12.38;6.72;;;13.10;99.90;;;;;;5014474;28;20022;-80
2023/06/01 03:25:25;;;;;;;15.00;6.70;;;13.20;99.90;;;;;;5019146;28;20485;-81
2023/06/01 03:27:55;;;;;;;14.30;6.13;;;13.20;99.90;;;;;;5020481;28;20480;-81
2023/06/01 03:30:21;;;;;;;12.73;6.38;;;13.10;99.90;;;;;;5018729;28;20026;-80
2023/06/01 03:32:47;;;;;;;13.73;6.10;;;13.00;99.90;;;;;;5013222;28;20052;-81
2023/06/01 03:35:13;;;;;;;15.73;6.68;;;13.00;99.90;;;;;;5013764;28;20095;-80
2023/06/01 03:37:40;;;;;;;17.13;7.35;;;13.00;99.90;;;;;;5016579;28;20129;-81
2023/06/01 03:40:10;;;;;;;14.98;7.25;;;13.00;99.90;;;;;;5020949;28;20032;-81
2023/06/01 03:42:47;;;;;;;11.00;5.47;;;13.00;99.90;;;;;;5015141;28;20621;-81
2023/06/01 03:45:15;;;;;;;12.38;5.57;;;13.00;99.90;;;;;;5021368;28;20125;-81
2023/06/01 03:47:41;;;;;;;11.43;5.93;;;13.00;99.90;;;;;;5019363;28;20026;-83
2023/06/01 03:50:09;;;;;;;25.55;6.72;;;12.90;99.90;;;;;;5021749;28;20039;-81
2023/06/01 03:52:35;;;;;;;15.65;6.35;;;13.00;99.90;;;;;;5014778;28;20026;-81
2023/06/01 03:55:07;;;;;;;13.80;6.70;;;13.00;99.90;;;;;;5016534;28;20030;-81
2023/06/01 03:57:36;;;;;;;19.77;7.60;;;13.00;99.90;;;;;;5012815;28;20075;-81
2023/06/01 04:00:03;;;;;;;11.95;5.75;;;13.00;99.90;;;;;;5014896;28;20034;-81
2023/06/01 04:02:32;;;;;;;12.30;6.40;;;12.90;99.90;;;;;;5015796;28;20018;-82
2023/06/01 04:05:00;;;;;;;15.30;7.18;;;12.90;99.90;;;;;;5017604;28;20378;-81
2023/06/01 04:07:26;;;;;;;21.13;7.03;;;12.90;99.90;;;;;;5012791;28;20081;-82
2023/06/01 04:09:51;;;;;;;16.05;6.55;;;12.90;99.90;;;;;;5023737;28;20120;-81
2023/06/01 04:12:17;;;;;;;18.13;7.30;;;13.00;99.90;;;;;;5016656;28;20120;-81
2023/06/01 04:14:42;;;;;;;14.10;6.13;;;13.00;99.90;;;;;;5015633;28;20029;-82
2023/06/01 04:17:08;;;;;;;12.10;6.68;;;13.00;99.90;;;;;;5020642;28;20057;-81
2023/06/01 04:19:38;;;;;;;19.75;6.75;;;13.10;99.90;;;;;;5020402;28;20025;-80
2023/06/01 04:22:04;;;;;;;14.98;6.93;;;13.10;99.90;;;;;;5012542;28;20020;-80
2023/06/01 04:24:30;;;;;;;18.92;7.70;;;13.10;99.90;;;;;;5013343;28;20112;-80
2023/06/01 04:26:56;;;;;;;19.08;7.70;;;13.10;99.90;;;;;;5014395;28;20061;-80
2023/06/01 04:29:24;;;;;;;18.63;6.75;;;13.20;99.90;;;;;;5014841;28;20021;-80
2023/06/01 04:31:50;;;;;;;14.65;8.63;;;13.10;99.90;;;;;;5017059;28;20114;-81
2023/06/01 04:34:16;;;;;;;19.20;7.38;;;13.10;99.90;;;;;;5020524;28;20036;-80
2023/06/01 04:36:42;;;;;;;19.05;6.88;;;13.10;99.90;;;;;;5014521;28;20425;-80
2023/06/01 04:39:10;;;;;;;18.58;7.43;;;13.00;99.90;;;;;;5015113;28;20030;-81
2023/06/01 04:41:36;;;;;;;15.80;7.47;;;13.10;99.90;;;;;;5015391;28;20841;-81
2023/06/01 04:44:06;;;;;;;15.57;7.10;;;13.20;99.90;;;;;;5016102;28;20470;-80
2023/06/01 04:46:32;;;;;;;15.57;7.15;;;13.30;99.90;;;;;;5017462;28;20114;-83
2023/06/01 04:48:59;;;;;;;17.70;8.23;;;13.30;99.90;;;;;;5013792;28;20165;-80
2023/06/01 04:51:28;;;;;;;17.23;7.72;;;13.40;99.90;;;;;;5148411;22;20053;-81
2023/06/01 04:53:55;;;;;;;20.35;7.18;;;13.40;99.90;;;;;;5004682;28;20509;-81
2023/06/01 04:56:26;;;;;;;16.38;7.88;;;13.50;99.90;;;;;;5011537;28;20071;-81
2023/06/01 04:58:53;;;;;;;16.02;6.57;;;13.60;99.90;;;;;;5012090;28;20032;-81
2023/06/01 05:01:20;;;;;;;20.92;7.63;;;13.50;99.90;;;;;;5010086;28;20129;-81
2023/06/01 05:03:48;;;;;;;18.55;6.93;;;13.60;99.90;;;;;;5010294;28;20680;-81
2023/06/01 05:06:15;;;;;;;15.45;7.30;;;13.70;99.90;;;;;;5006723;28;20466;-83
2023/06/01 05:08:41;;;;;;;15.13;7.78;;;13.70;99.90;;;;;;5013895;28;20034;-80
2023/06/01 05:11:08;;;;;;;20.73;6.97;;;13.70;99.90;;;;;;5011287;28;20540;-81
2023/06/01 05:13:38;;;;;;;18.52;8.50;;;13.70;99.90;;;;;;5012394;28;20037;-83
2023/06/01 05:16:04;;;;;;;16.95;7.35;;;13.70;99.90;;;;;;5011468;28;20720;-81
2023/06/01 05:18:31;;;;;;;26.70;7.78;;;13.80;99.90;;;;;;5014257;28;20147;-82
2023/06/01 05:20:57;;;;;;;17.73;7.63;;;13.80;99.90;;;;;;5030005;28;20159;-84
2023/06/01 05:23:23;;;;;;;16.75;7.53;;;13.80;99.90;;;;;;5010759;28;20462;-82
2023/06/01 05:25:50;;;;;;;17.50;6.90;;;13.80;99.90;;;;;;5013381;28;20037;-81
2023/06/01 05:28:16;;;;;;;19.15;6.88;;;13.80;99.90;;;;;;5009273;28;20071;-85
2023/06/01 05:30:44;;;;;;;26.58;8.07;;;13.90;99.90;;;;;;5010234;28;20025;-82
2023/06/01 05:33:09;;;;;;;18.30;7.85;;;13.90;99.90;;;;;;5003214;28;20396;-82
2023/06/01 05:35:36;;;;;;;23.63;7.55;;;13.90;99.90;;;;;;5012284;28;20025;-82
2023/06/01 05:38:04;;;;;;;15.77;7.68;;;14.00;99.90;;;;;;5012523;28;20022;-82
2023/06/01 05:40:30;;;;;;;25.13;7.70;;;14.00;99.90;;;;;;5009134;28;20041;-82
2023/06/01 05:42:55;;;;;;;18.05;6.32;;;14.20;99.90;;;;;;5008461;28;20718;-82
2023/06/01 05:45:23;;;;;;;24.38;7.10;;;14.30;99.90;;;;;;5008286;28;20041;-82
2023/06/01 05:47:49;;;;;;;14.88;7.65;;;14.50;99.90;;;;;;5011076;28;20456;-83
2023/06/01 05:50:15;;;;;;;18.60;7.38;;;14.50;99.90;;;;;;5012444;28;20038;-82
2023/06/01 05:52:42;;;;;;;14.13;6.10;;;14.60;99.90;;;;;;5009773;28;20033;-84
2023/06/01 05:55:08;;;;;;;15.68;6.75;;;14.50;99.90;;;;;;5015557;28;20026;-83
2023/06/01 05:57:34;;;;;;;16.35;6.47;;;14.50;99.90;;;;;;5009554;28;20558;-84
2023/06/01 05:59:59;;;;;;;18.77;6.93;;;14.50;99.90;;;;;;5013243;28;20026;-84
2023/06/01 06:02:27;;;;;;;19.13;7.80;;;14.50;99.90;;;;;;5009638;28;20017;-83
2023/06/01 06:04:53;;;;;;;15.32;7.25;;;14.60;99.90;;;;;;5008659;28;20025;-83
2023/06/01 06:07:18;;;;;;;14.35;7.00;;;14.60;99.90;;;;;;5005779;28;20115;-84
2023/06/01 06:09:44;;;;;;;16.52;7.47;;;14.40;99.90;;;;;;5010424;28;20108;-82
2023/06/01 06:12:10;;;;;;;21.77;6.88;;;14.50;99.90;;;;;;5006199;28;20029;-84
2023/06/01 06:14:35;;;;;;;13.77;7.28;;;14.70;99.90;;;;;;5004672;28;20014;-83
2023/06/01 06:17:02;;;;;;;15.07;6.53;;;14.80;99.90;;;;;;5009600;28;20496;-81
2023/06/01 06:19:28;;;;;;;11.43;5.82;;;14.80;99.90;;;;;;5009377;28;20739;-82
2023/06/01 06:21:56;;;;;;;17.90;7.38;;;15.00;99.90;;;;;;5013222;28;20313;-83
2023/06/01 06:24:21;;;;;;;18.60;7.50;;;15.10;99.90;;;;;;5012399;28;20046;-83
2023/06/01 06:26:47;;;;;;;17.63;6.95;;;15.20;99.90;;;;;;5010621;28;21270;-83
2023/06/01 06:29:15;;;;;;;13.30;7.05;;;15.40;99.90;;;;;;5014106;28;20552;-83
2023/06/01 06:31:41;;;;;;;22.13;6.90;;;15.60;99.90;;;;;;5012088;28;20923;-83
2023/06/01 06:34:07;;;;;;;25.20;7.63;;;15.70;99.90;;;;;;5013561;28;20021;-83
2023/06/01 06:36:33;;;;;;;11.43;6.30;;;15.80;99.90;;;;;;5013294;28;20437;-84
2023/06/01 06:38:59;;;;;;;18.77;7.15;;;15.90;99.90;;;;;;5006380;28;20128;-82
2023/06/01 06:41:25;;;;;;;11.52;6.07;;;16.20;99.90;;;;;;5019975;28;20111;-83
2023/06/01 06:43:50;;;;;;;15.48;6.38;;;16.40;99.90;;;;;;5016184;28;20021;-82
2023/06/01 06:46:16;;;;;;;17.08;6.20;;;16.40;99.90;;;;;;5013421;28;20033;-82
2023/06/01 06:48:42;;;;;;;13.18;6.82;;;16.40;99.90;;;;;;5006420;28;20161;-82
2023/06/01 06:51:07;;;;;;;13.50;6.15;;;16.50;99.90;;;;;;5011723;28;20045;-83
2023/06/01 06:53:33;;;;;;;10.93;6.53;;;16.60;99.90;;;;;;5011571;28;20716;-82
2023/06/01 06:55:59;;;;;;;17.52;6.28;;;16.70;99.90;;;;;;5011896;28;20068;-82
2023/06/01 06:58:25;;;;;;;18.63;6.45;;;16.80;99.90;;;;;;5008427;28;20088;-82
2023/06/01 07:00:51;;;;;;;13.77;6.15;;;17.00;99.90;;;;;;5007622;28;20588;-84
2023/06/01 07:03:16;;;;;;;16.65;6.35;;;16.90;99.90;;;;;;5017108;28;20064;-84
2023/06/01 07:05:44;;;;;;;18.65;6.53;;;17.00;99.90;;;;;;5019555;28;20767;-81
2023/06/01 07:08:10;;;;;;;12.50;6.55;;;16.60;99.90;;;;;;5015223;28;20045;-85
2023/06/01 07:10:36;;;;;;;13.50;5.85;;;16.90;99.90;;;;;;5013626;28;20022;-84
2023/06/01 07:13:01;;;;;;;18.23;6.60;;;16.90;99.90;;;;;;5017049;28;20124;-84
2023/06/01 07:15:27;;;;;;;21.05;6.43;;;17.10;99.90;;;;;;5015218;28;20544;-84
2023/06/01 07:17:52;;;;;;;18.92;7.50;;;16.80;99.90;;;;;;5027216;28;20085;-84
2023/06/01 07:20:18;;;;;;;16.27;7.28;;;16.70;99.90;;;;;;5030493;28;20029;-84
2023/06/01 07:22:47;;;;;;;21.38;7.97;;;16.70;99.90;;;;;;5028939;28;20026;-84
2023/06/01 07:25:13;;;;;;;13.32;6.72;;;16.70;99.90;;;;;;5019641;28;20097;-84
2023/06/01 07:27:43;;;;;;;12.25;6.75;;;16.90;99.90;;;;;;5017823;28;20563;-84
2023/06/01 07:30:12;;;;;;;26.50;7.43;;;17.10;99.90;;;;;;5011380;28;20112;-85
2023/06/01 07:32:37;;;;;;;12.75;6.50;;;17.20;99.90;;;;;;5020919;28;20094;-84
2023/06/01 07:35:05;;;;;;;18.60;8.05;;;17.30;99.70;;;;;;5018130;28;20232;-84
2023/06/01 07:37:33;;;;;;;17.40;7.35;;;17.40;99.30;;;;;;5025693;28;20033;-84
2023/06/01 07:40:01;;;;;;;10.98;7.03;;;17.60;99.30;;;;;;5032619;28;20048;-84
2023/06/01 07:42:26;;;;;;;13.57;6.65;;;17.80;99.00;;;;;;5027631;28;20104;-84
2023/06/01 07:44:53;;;;;;;12.52;7.45;;;18.10;98.50;;;;;;5010668;28;20156;-83
2023/06/01 07:47:18;;;;;;;17.75;6.75;;;18.10;98.00;;;;;;5010313;28;20038;-84
2023/06/01 07:49:44;;;;;;;16.40;7.15;;;17.90;97.80;;;;;;5007634;28;20348;-85
2023/06/01 07:52:10;;;;;;;15.23;7.32;;;17.90;97.70;;;;;;5016085;28;20032;-84
2023/06/01 07:54:38;;;;;;;19.05;7.30;;;18.20;97.80;;;;;;5007114;28;20584;-85
2023/06/01 07:57:04;;;;;;;18.23;8.23;;;18.30;97.20;;;;;;5011335;28;20018;-84
2023/06/01 07:59:31;;;;;;;17.08;7.50;;;18.40;97.10;;;;;;5007463;28;20026;-85
2023/06/01 08:01:58;;;;;;;16.20;7.53;;;18.60;96.60;;;;;;5009319;28;20382;-84
2023/06/01 08:04:24;;;;;;;20.80;7.50;;;18.80;96.30;;;;;;5020673;28;20037;-84
2023/06/01 08:06:52;;;;;;;16.83;7.18;;;19.00;95.80;;;;;;5015657;28;20030;-82
2023/06/01 08:09:20;;;;;;;36.65;7.40;;;19.20;95.10;;;;;;5008890;28;20087;-84
2023/06/01 08:11:45;;;;;;;14.40;7.40;;;19.30;94.90;;;;;;5010179;28;20045;-83
2023/06/01 08:14:11;;;;;;;15.93;8.23;;;19.10;94.70;;;;;;5011845;28;20547;-82
2023/06/01 08:16:37;;;;;;;19.00;8.00;;;18.80;94.90;;;;;;5015792;28;20049;-82
2023/06/01 08:19:03;;;;;;;20.90;7.60;;;19.10;94.90;;;;;;5011870;28;20033;-82
2023/06/01 08:21:28;;;;;;;17.98;7.65;;;19.10;94.60;;;;;;5022214;28;20478;-82
2023/06/01 08:23:54;;;;;;;18.17;7.93;;;19.30;94.10;;;;;;5011485;28;20037;-83
2023/06/01 08:26:21;;;;;;;18.20;7.65;;;19.30;93.40;;;;;;5008753;28;20020;-83
2023/06/01 08:28:51;;;;;;;18.88;7.43;;;19.80;93.50;;;;;;5010509;28;20116;-82
2023/06/01 08:31:22;;;;;;;16.92;7.60;;;20.10;93.00;;;;;;5012709;28;20430;-82
2023/06/01 08:33:49;;;;;;;12.90;7.85;;;20.30;92.40;;;;;;5008800;28;20021;-81
2023/06/01 08:36:15;;;;;;;22.80;7.95;;;20.30;92.10;;;;;;5013402;28;20036;-81
2023/06/01 08:38:41;;;;;;;17.73;8.52;;;20.50;91.70;;;;;;5013301;28;20533;-81
2023/06/01 08:41:18;;;;;;;16.42;7.75;;;20.60;91.60;;;;;;5012980;28;20064;-83
2023/06/01 08:43:53;;;;;;;16.92;7.60;;;20.70;91.10;;;;;;5012856;28;20075;-82
2023/06/01 08:46:21;;;;;;;24.08;8.20;;;20.90;90.90;;;;;;5009965;28;20465;-83
2023/06/01 08:48:52;;;;;;;19.05;8.07;;;21.00;90.30;;;;;;5012283;28;20044;-82
2023/06/01 08:51:18;;;;;;;14.95;6.80;;;20.90;90.40;;;;;;5005779;28;20076;-83
2023/06/01 08:53:47;;;;;;;17.65;7.93;;;21.30;90.30;;;;;;5012443;28;20021;-82
2023/06/01 08:56:12;;;;;;;15.23;7.53;;;21.50;88.80;;;;;;5010369;28;20461;-81
2023/06/01 08:58:40;;;;;;;16.42;7.07;;;21.80;86.90;;;;;;5012836;28;20017;-82
2023/06/01 09:01:06;;;;;;;12.93;7.03;;;21.60;85.30;;;;;;5009184;28;20365;-80
2023/06/01 09:03:32;;;;;;;20.42;7.68;;;21.90;85.70;;;;;;5010813;28;20053;-82
2023/06/01 09:05:57;;;;;;;12.32;7.00;;;21.90;85.50;;;;;;5007686;28;20030;-83
2023/06/01 09:08:24;;;;;;;15.70;7.97;;;21.80;84.90;;;;;;5007065;28;20099;-82
2023/06/01 09:10:50;;;;;;;15.57;7.37;;;21.80;85.00;;;;;;5009486;28;20717;-82
2023/06/01 09:13:36;;;;;;;17.58;7.25;;;21.70;85.10;;;;;;5010488;28;20054;-83
2023/06/01 09:16:02;;;;;;;23.42;8.43;;;21.90;85.80;;;;;;5004019;28;20087;-82
2023/06/01 09:18:28;;;;;;;18.02;7.88;;;22.30;83.80;;;;;;5011178;28;20640;-82
2023/06/01 09:20:56;;;;;;;13.77;7.40;;;22.20;85.80;;;;;;5011297;28;20441;-82
2023/06/01 09:23:26;;;;;;;18.20;8.18;;;22.30;82.30;;;;;;5001806;28;20087;-82
2023/06/01 09:26:10;;;;;;;14.90;7.60;;;22.60;81.80;;;;;;5011415;28;20030;-82
2023/06/01 09:28:58;;;;;;;16.00;7.97;;;22.30;80.80;;;;;;5012725;28;20018;-82
2023/06/01 09:31:40;;;;;;;17.42;8.15;;;22.50;82.00;;;;;;5010796;28;20067;-82
2023/06/01 09:34:11;;;;;;;14.95;7.32;;;22.80;80.40;;;;;;5011045;28;20500;-82
2023/06/01 09:36:41;;;;;;;22.35;8.52;;;23.10;79.00;;;;;;5008090;28;20053;-82
2023/06/01 09:39:12;;;;;;;15.35;8.60;;;23.00;79.00;;;;;;5027390;28;20625;-82
2023/06/01 09:41:55;;;;;;;17.35;9.02;;;23.10;78.80;;;;;;5020309;28;20014;-81
2023/06/01 09:44:35;;;;;;;22.42;9.43;;;22.90;80.00;;;;;;5012121;28;20021;-82
2023/06/01 09:47:12;;;;;;;16.90;8.50;;;23.10;80.50;;;;;;5007320;28;20116;-83
2023/06/01 09:49:45;;;;;;;16.15;8.15;;;23.50;78.00;;;;;;5005884;28;20552;-81
2023/06/01 09:52:14;;;;;;;24.13;7.82;;;23.70;77.40;;;;;;5006050;28;20370;-79
2023/06/01 09:54:41;;;;;;;15.30;8.10;;;23.80;76.70;;;;;;5010900;28;20021;-79
2023/06/01 09:57:08;;;;;;;15.43;8.05;;;24.00;77.80;;;;;;5012398;28;20013;-82
2023/06/01 09:59:44;;;;;;;13.88;7.53;;;23.50;76.60;;;;;;5011876;28;20028;-82
2023/06/01 10:02:21;;;;;;;10.55;7.38;;;23.50;78.20;;;;;;5015341;28;20803;-83
2023/06/01 10:05:00;;;;;;;16.98;7.72;;;23.80;78.20;;;;;;5019312;28;20060;-82
2023/06/01 10:07:31;;;;;;;16.20;7.95;;;24.30;77.00;;;;;;5010114;28;20109;-81
2023/06/01 10:09:58;;;;;;;21.23;8.32;;;24.30;75.40;;;;;;5012602;28;20030;-81
2023/06/01 10:12:25;;;;;;;19.50;8.57;;;24.50;75.30;;;;;;5011108;28;20034;-82
2023/06/01 10:14:52;;;;;;;14.50;8.10;;;24.90;76.10;;;;;;5007406;28;20027;-82
2023/06/01 10:17:19;;;;;;;15.80;8.13;;;24.90;72.50;;;;;;5012292;28;20049;-82
2023/06/01 10:19:45;;;;;;;20.27;8.07;;;24.90;73.20;;;;;;5011910;28;20033;-82
2023/06/01 10:22:11;;;;;;;17.52;8.13;;;24.90;74.70;;;;;;5010783;28;20039;-82
2023/06/01 10:24:41;;;;;;;102.03;41.80;;;25.50;72.30;;;;;;5010883;28;20129;-82
2023/06/01 10:27:23;;;;;;;13.15;7.45;;;25.80;69.90;;;;;;5009850;28;20034;-82
2023/06/01 10:29:52;;;;;;;16.35;8.85;;;25.50;68.70;;;;;;5008040;28;20026;-82
2023/06/01 10:32:37;;;;;;;12.50;8.60;;;25.50;69.30;;;;;;5004577;28;20366;-81
2023/06/01 10:35:05;;;;;;;14.77;7.95;;;25.00;69.60;;;;;;5008095;28;20029;-82
2023/06/01 10:37:31;;;;;;;13.85;7.75;;;24.80;69.80;;;;;;5010768;28;20513;-83
2023/06/01 10:40:18;;;;;;;12.73;6.95;;;25.10;70.40;;;;;;5010843;28;20092;-82
2023/06/01 10:42:44;;;;;;;14.63;7.38;;;25.20;70.00;;;;;;5008812;28;20026;-82
2023/06/01 10:45:40;;;;;;;20.52;7.88;;;25.50;70.60;;;;;;5016130;28;20104;-81
2023/06/01 10:48:10;;;;;;;15.65;6.72;;;25.50;69.10;;;;;;4994925;28;20037;-81
2023/06/01 10:50:36;;;;;;;20.30;9.48;;;25.60;69.30;;;;;;5009232;28;20096;-83
2023/06/01 10:53:24;;;;;;;14.18;7.13;;;26.00;68.90;;;;;;5002983;28;20071;-82
2023/06/01 10:56:23;;;;;;;14.95;8.27;;;26.50;68.30;;;;;;5011470;28;20177;-82
2023/06/01 10:59:14;;;;;;;12.43;7.15;;;26.40;67.30;;;;;;5007706;28;20099;-81
2023/06/01 11:01:42;;;;;;;14.52;7.78;;;26.00;66.80;;;;;;4999371;28;20036;-82
2023/06/01 11:04:08;;;;;;;15.43;7.10;;;25.90;67.80;;;;;;5009711;28;20033;-82
2023/06/01 11:06:38;;;;;;;8.93;6.53;;;25.90;66.60;;;;;;5009799;28;20311;-81
2023/06/01 11:09:05;;;;;;;9.88;7.40;;;25.90;66.60;;;;;;5010266;28;20040;-82
2023/06/01 11:11:51;;;;;;;13.98;7.07;;;25.50;67.00;;;;;;5011536;28;20455;-82
2023/06/01 11:14:25;;;;;;;13.38;6.90;;;25.10;68.50;;;;;;5007632;28;20034;-82
2023/06/01 11:16:52;;;;;;;38.78;18.45;;;24.90;68.80;;;;;;5008541;28;20041;-81
2023/06/01 11:19:26;;;;;;;11.90;6.57;;;24.90;69.60;;;;;;5005945;28;20546;-80
2023/06/01 11:22:03;;;;;;;11.15;7.05;;;25.00;68.30;;;;;;5010284;28;20034;-82
2023/06/01 11:24:34;;;;;;;13.05;7.80;;;25.30;69.00;;;;;;5005047;28;20037;-82
2023/06/01 11:27:06;;;;;;;14.07;6.80;;;25.40;68.80;;;;;;5008795;28;20425;-83
2023/06/01 11:29:32;;;;;;;11.43;8.25;;;25.40;68.20;;;;;;5002416;28;20160;-81
2023/06/01 11:32:00;;;;;;;9.05;6.65;;;25.30;67.60;;;;;;5011984;28;20037;-82
2023/06/01 11:34:38;;;;;;;12.60;8.00;;;25.40;67.70;;;;;;5002808;28;20022;-82
2023/06/01 11:37:05;;;;;;;93.82;35.75;;;25.20;68.30;;;;;;5009281;28;20196;-82
2023/06/01 11:39:31;;;;;;;12.68;7.57;;;25.40;68.10;;;;;;5011213;28;20029;-81
2023/06/01 11:42:10;;;;;;;13.00;7.63;;;25.40;67.80;;;;;;5009061;28;20095;-81
2023/06/01 11:44:38;;;;;;;14.52;7.40;;;25.40;67.00;;;;;;5003271;28;20069;-82
2023/06/01 11:47:06;;;;;;;15.07;7.97;;;25.40;68.90;;;;;;5011929;28;20100;-81
2023/06/01 11:49:52;;;;;;;14.48;7.78;;;25.60;66.90;;;;;;5014441;28;20058;-82
2023/06/01 11:52:19;;;;;;;17.45;8.85;;;25.60;67.10;;;;;;5014278;28;20397;-81
2023/06/01 11:54:49;;;;;;;14.93;8.07;;;25.30;68.10;;;;;;5013953;28;20033;-81
2023/06/01 11:57:15;;;;;;;13.10;7.80;;;25.40;68.90;;;;;;5010953;28;20021;-83
2023/06/01 11:59:45;;;;;;;14.27;7.28;;;25.40;67.00;;;;;;5014160;28;20425;-81
2023/06/01 12:02:21;;;;;;;15.98;8.05;;;25.80;68.20;;;;;;5013208;28;20523;-81
2023/06/01 12:05:08;;;;;;;15.55;7.97;;;25.70;65.60;;;;;;5012710;28;20200;-81
2023/06/01 12:07:48;;;;;;;16.23;7.60;;;25.60;66.10;;;;;;5018064;28;20069;-81
2023/06/01 12:10:16;;;;;;;16.75;7.95;;;25.60;66.10;;;;;;5008636;28;20017;-82
2023/06/01 12:12:45;;;;;;;13.98;7.68;;;25.70;66.50;;;;;;5011920;28;20122;-81
2023/06/01 12:15:18;;;;;;;14.75;8.05;;;25.50;66.80;;;;;;5018894;28;20026;-82
2023/06/01 12:17:56;;;;;;;13.32;7.68;;;25.60;67.50;;;;;;5014084;28;20414;-82
2023/06/01 12:20:30;;;;;;;13.65;7.80;;;25.80;66.60;;;;;;5018860;28;20045;-82
2023/06/01 12:22:56;;;;;;;11.93;7.35;;;25.80;67.00;;;;;;5016179;28;20025;-82
2023/06/01 12:25:23;;;;;;;14.63;7.57;;;25.50;64.80;;;;;;5014842;28;20045;-82
2023/06/01 12:28:07;;;;;;;12.65;8.02;;;25.50;64.80;;;;;;5011348;28;20817;-82
2023/06/01 12:30:33;;;;;;;11.25;6.82;;;25.30;64.60;;;;;;5011589;28;20397;-82
2023/06/01 12:33:00;;;;;;;12.32;7.20;;;25.50;64.60;;;;;;5010122;28;20033;-82
2023/06/01 12:35:26;;;;;;;13.48;8.25;;;25.90;65.00;;;;;;5017958;28;20026;-83
2023/06/01 12:38:14;;;;;;;49.80;25.38;;;25.50;64.90;;;;;;5008709;28;20293;-81
2023/06/01 12:40:40;;;;;;;14.18;7.50;;;25.50;65.80;;;;;;5029967;28;20306;-82
2023/06/01 12:43:20;;;;;;;14.80;8.27;;;25.30;67.50;;;;;;5013138;28;20049;-82
2023/06/01 12:45:46;;;;;;;13.65;7.95;;;25.60;66.20;;;;;;5012566;28;20117;-82